createdAt,value
2022-09-23T00:01:27.293Z,100908.81
2022-09-23T00:04:29.319Z,100903.91
2022-09-23T00:07:44.253Z,100906.97
2022-09-23T00:10:46.072Z,100900.22
2022-09-23T00:14:04.257Z,100903.31
2022-09-23T00:17:13.163Z,100898.25
2022-09-23T00:20:21.251Z,100903.06
2022-09-23T00:23:36.290Z,100873.25
2022-09-23T00:26:51.307Z,100899.56
2022-09-23T00:29:59.276Z,100899.41
2022-09-23T00:33:14.541Z,100886.25
2022-09-23T00:36:23.279Z,100899.44
2022-09-23T00:39:32.003Z,100887.13
2022-09-23T00:42:56.449Z,100879.16
2022-09-23T00:45:58.350Z,100885.28
2022-09-23T00:49:22.292Z,100881.47
2022-09-23T00:52:31.534Z,100877.34
2022-09-23T00:55:46.263Z,100882.88
2022-09-23T00:58:54.944Z,100882.31
2022-09-23T01:02:10.296Z,100877.50
2022-09-23T01:05:12.747Z,100884.87
2022-09-23T01:08:29.276Z,100884.03
2022-09-23T01:11:42.488Z,100882.03
2022-09-23T01:15:13.299Z,100879.94
2022-09-23T01:18:49.287Z,100887.16
2022-09-23T01:22:16.287Z,100899.00
2022-09-23T01:25:52.099Z,100891.69
2022-09-23T01:29:31.282Z,100889.69
2022-09-23T01:33:04.279Z,100877.41
2022-09-23T01:36:34.301Z,100886.31
2022-09-23T01:40:06.336Z,100886.44
2022-09-23T01:43:16.095Z,100888.37
2022-09-23T01:46:42.296Z,100886.53
2022-09-23T01:50:04.314Z,100881.16
2022-09-23T01:53:19.687Z,100881.75
2022-09-23T01:56:40.359Z,100873.81
2022-09-23T01:59:57.344Z,100872.41
2022-09-23T02:03:15.046Z,100878.63
2022-09-23T02:06:35.308Z,100874.94
2022-09-23T02:09:50.298Z,100878.34
2022-09-23T02:13:03.480Z,100866.72
2022-09-23T02:16:33.433Z,100867.59
2022-09-23T02:19:44.504Z,100864.19
2022-09-23T02:23:08.309Z,100869.44
2022-09-23T02:26:18.745Z,100869.56
2022-09-23T02:29:42.364Z,100868.72
2022-09-23T02:33:13.306Z,100868.16
2022-09-23T02:36:29.459Z,100869.16
2022-09-23T02:40:01.307Z,100872.25
2022-09-23T02:43:34.375Z,100874.25
2022-09-23T02:46:36.969Z,100881.00
2022-09-23T02:49:52.370Z,100867.47
2022-09-23T02:53:01.176Z,100871.69
2022-09-23T02:56:21.320Z,100865.03
2022-09-23T02:59:30.618Z,100868.72
2022-09-23T03:03:00.336Z,100872.41
2022-09-23T03:06:32.308Z,100872.09
2022-09-23T03:10:01.359Z,100876.94
2022-09-23T03:13:36.945Z,100871.00
2022-09-23T03:16:56.230Z,100868.72
2022-09-23T03:20:19.336Z,100867.16
2022-09-23T03:23:27.148Z,100871.53
2022-09-23T03:26:45.327Z,100873.81
2022-09-23T03:30:01.332Z,100876.91
2022-09-23T03:33:08.099Z,100872.06
2022-09-23T03:36:37.344Z,100872.78
2022-09-23T03:39:47.892Z,100879.25
2022-09-23T03:43:05.334Z,100882.38
2022-09-23T03:46:14.065Z,100882.78
2022-09-23T03:49:26.356Z,100879.41
2022-09-23T03:52:41.340Z,100876.56
2022-09-23T03:55:49.955Z,100874.84
2022-09-23T03:58:58.338Z,100880.78
2022-09-23T04:02:07.797Z,100870.87
2022-09-23T04:05:18.347Z,100878.78
2022-09-23T04:08:27.264Z,100880.31
2022-09-23T04:11:42.338Z,100881.31
2022-09-23T04:14:44.467Z,100876.91
2022-09-23T04:17:59.352Z,100881.03
2022-09-23T04:21:14.360Z,100885.81
2022-09-23T04:24:17.266Z,100880.59
2022-09-23T04:27:37.397Z,100880.16
2022-09-23T04:30:41.372Z,100886.12
2022-09-23T04:33:57.362Z,100879.19
2022-09-23T04:37:12.636Z,100887.66
2022-09-23T04:40:21.428Z,100889.78
2022-09-23T04:43:36.366Z,100887.34
2022-09-23T04:46:51.463Z,100885.63
2022-09-23T04:50:00.046Z,100889.16
2022-09-23T04:53:08.972Z,100893.56
2022-09-23T04:56:34.379Z,100890.47
2022-09-23T04:59:36.224Z,100884.81
2022-09-23T05:02:53.381Z,100896.28
2022-09-23T05:06:05.428Z,100896.03
2022-09-23T05:09:23.357Z,100902.84
2022-09-23T05:12:32.268Z,100900.84
2022-09-23T05:15:40.398Z,100907.09
2022-09-23T05:18:50.453Z,100912.06
2022-09-23T05:22:05.405Z,100903.75
2022-09-23T05:25:07.511Z,100908.56
2022-09-23T05:28:22.387Z,100888.63
2022-09-23T05:31:38.485Z,100911.69
2022-09-23T05:34:53.594Z,100926.28
2022-09-23T05:38:08.436Z,100924.44
2022-09-23T05:41:13.171Z,100926.00
2022-09-23T05:44:28.396Z,100924.16
2022-09-23T05:47:43.445Z,100921.78
2022-09-23T05:50:52.783Z,100927.47
2022-09-23T05:54:08.485Z,100926.75
2022-09-23T05:57:17.096Z,100924.63
2022-09-23T06:00:25.471Z,100921.37
2022-09-23T06:03:34.072Z,100922.66
2022-09-23T06:06:45.400Z,100925.88
2022-09-23T06:09:54.047Z,100920.66
2022-09-23T06:13:08.459Z,100918.37
2022-09-23T06:16:13.287Z,100918.78
2022-09-23T06:19:28.444Z,100927.53
2022-09-23T06:22:43.434Z,100924.00
2022-09-23T06:25:51.466Z,100927.12
2022-09-23T06:29:01.595Z,100930.34
2022-09-23T06:32:10.461Z,100928.22
2022-09-23T06:35:33.510Z,100929.16
2022-09-23T06:38:42.973Z,100923.88
2022-09-23T06:41:51.443Z,100934.66
2022-09-23T06:45:00.068Z,100929.25
2022-09-23T06:48:14.402Z,100932.78
2022-09-23T06:51:23.472Z,100933.28
2022-09-23T06:54:41.404Z,100945.25
2022-09-23T06:57:49.463Z,100951.44
2022-09-23T07:01:15.548Z,100947.88
2022-09-23T07:04:29.131Z,100941.91
2022-09-23T07:07:37.502Z,100945.53
2022-09-23T07:10:58.487Z,100947.53
2022-09-23T07:14:13.672Z,100956.19
2022-09-23T07:17:22.463Z,100946.78
2022-09-23T07:20:32.364Z,100944.69
2022-09-23T07:23:49.432Z,100953.19
2022-09-23T07:27:01.663Z,100949.25
2022-09-23T07:30:24.447Z,100949.84
2022-09-23T07:33:48.491Z,100956.31
2022-09-23T07:37:03.483Z,100957.06
2022-09-23T07:40:13.188Z,100953.59
2022-09-23T07:43:21.447Z,100953.22
2022-09-23T07:46:39.477Z,100951.66
2022-09-23T07:49:48.163Z,100950.88
2022-09-23T07:52:56.443Z,100951.19
2022-09-23T07:56:12.566Z,100947.66
2022-09-23T07:59:34.476Z,100920.66
2022-09-23T08:02:43.058Z,100946.84
2022-09-23T08:05:57.537Z,100958.34
2022-09-23T08:09:12.520Z,100949.44
2022-09-23T08:12:24.496Z,100951.00
2022-09-23T08:15:33.162Z,100948.44
2022-09-23T08:18:41.713Z,100949.44
2022-09-23T08:21:57.509Z,100937.53
2022-09-23T08:25:13.704Z,100945.34
2022-09-23T08:28:22.108Z,100943.66
2022-09-23T08:31:30.476Z,100946.06
2022-09-23T08:34:39.199Z,100935.94
2022-09-23T08:38:00.516Z,100938.87
2022-09-23T08:41:32.487Z,100944.44
2022-09-23T08:44:55.469Z,100928.03
2022-09-23T08:48:17.480Z,100930.97
2022-09-23T08:51:40.471Z,100939.06
2022-09-23T08:54:42.351Z,100938.53
2022-09-23T08:58:26.833Z,100934.72
2022-09-23T09:01:41.464Z,100931.66
2022-09-23T09:05:01.492Z,100930.31
2022-09-23T09:08:12.227Z,100926.44
2022-09-23T09:11:22.508Z,100930.47
2022-09-23T09:14:46.542Z,100931.66
2022-09-23T09:18:16.554Z,100928.78
2022-09-23T09:21:40.564Z,100937.41
2022-09-23T09:24:49.448Z,100927.72
2022-09-23T09:27:59.584Z,100930.81
2022-09-23T09:31:30.610Z,100932.84
2022-09-23T09:35:02.501Z,100923.88
2022-09-23T09:38:17.591Z,100919.81
2022-09-23T09:41:34.606Z,100912.66
2022-09-23T09:44:42.381Z,100915.19
2022-09-23T09:48:12.544Z,100913.66
2022-09-23T09:51:31.508Z,100906.28
2022-09-23T09:54:40.488Z,100907.03
2022-09-23T09:57:59.396Z,100901.84
2022-09-23T10:01:14.534Z,100896.19
2022-09-23T10:04:29.561Z,100894.69
2022-09-23T10:07:38.202Z,100886.91
2022-09-23T10:10:57.541Z,100884.22
2022-09-23T10:14:20.464Z,100884.94
2022-09-23T10:17:40.476Z,100886.03
2022-09-23T10:20:42.440Z,100882.16
2022-09-23T10:24:01.507Z,100890.91
2022-09-23T10:27:17.566Z,100887.00
2022-09-23T10:30:23.053Z,100885.47
2022-09-23T10:33:56.517Z,100880.97
2022-09-23T10:37:21.541Z,100878.78
2022-09-23T10:40:33.604Z,100884.87
2022-09-23T10:44:14.524Z,100868.47
2022-09-23T10:47:48.549Z,100875.62
2022-09-23T10:50:53.210Z,100874.00
2022-09-23T10:54:27.496Z,100869.75
2022-09-23T10:57:59.364Z,100865.28
2022-09-23T11:01:37.560Z,100872.97
2022-09-23T11:05:07.574Z,100858.53
2022-09-23T11:08:33.805Z,100859.12
2022-09-23T11:12:06.560Z,100857.72
2022-09-23T11:15:32.492Z,100851.44
2022-09-23T11:19:00.415Z,100849.25
2022-09-23T11:22:31.797Z,100840.44
2022-09-23T11:25:57.556Z,100825.78
2022-09-23T11:29:24.204Z,100828.81
2022-09-23T11:32:52.589Z,100829.91
2022-09-23T11:36:24.568Z,100832.50
2022-09-23T11:39:41.609Z,100821.16
2022-09-23T11:43:03.635Z,100819.44
2022-09-23T11:46:38.548Z,100810.53
2022-09-23T11:49:55.416Z,100816.72
2022-09-23T11:53:13.562Z,100807.22
2022-09-23T11:56:34.769Z,100803.59
2022-09-23T11:59:58.583Z,100807.63
2022-09-23T12:03:16.221Z,100802.69
2022-09-23T12:06:40.576Z,100795.09
2022-09-23T12:10:01.440Z,100796.16
2022-09-23T12:13:25.657Z,100789.91
2022-09-23T12:16:58.807Z,100787.06
2022-09-23T12:20:24.610Z,100770.41
2022-09-23T12:23:59.688Z,100781.19
2022-09-23T12:27:22.701Z,100773.59
2022-09-23T12:30:30.062Z,100774.88
2022-09-23T12:33:45.609Z,100778.59
2022-09-23T12:37:00.663Z,100770.38
2022-09-23T12:40:20.781Z,100767.62
2022-09-23T12:43:38.676Z,100764.38
2022-09-23T12:46:53.760Z,100760.81
2022-09-23T12:49:56.408Z,100764.62
2022-09-23T12:53:31.632Z,100762.09
2022-09-23T12:57:00.695Z,100756.63
2022-09-23T13:00:34.265Z,100754.72
2022-09-23T13:04:00.683Z,100744.22
2022-09-23T13:07:08.126Z,100743.50
2022-09-23T13:10:34.614Z,100734.63
2022-09-23T13:13:52.695Z,100732.84
2022-09-23T13:16:56.448Z,100732.47
2022-09-23T13:20:33.645Z,100732.47
2022-09-23T13:23:42.940Z,100718.84
2022-09-23T13:26:56.380Z,100735.97
2022-09-23T13:30:08.713Z,100739.97
2022-09-23T13:33:25.638Z,100731.78
2022-09-23T13:36:53.639Z,100727.84
2022-09-23T13:40:10.427Z,100733.00
2022-09-23T13:43:31.620Z,100729.09
2022-09-23T13:46:52.643Z,100719.84
2022-09-23T13:49:54.720Z,100724.28
2022-09-23T13:53:16.701Z,100719.56
2022-09-23T13:56:18.835Z,100716.31
2022-09-23T13:59:37.704Z,100713.03
2022-09-23T14:02:46.496Z,100721.50
2022-09-23T14:05:55.778Z,100712.94
2022-09-23T14:09:06.412Z,100713.34
2022-09-23T14:12:21.653Z,100714.19
2022-09-23T14:15:24.083Z,100708.28
2022-09-23T14:18:43.721Z,100697.72
2022-09-23T14:21:50.876Z,100705.03
2022-09-23T14:25:06.729Z,100697.19
2022-09-23T14:28:18.631Z,100693.31
2022-09-23T14:31:26.770Z,100688.06
2022-09-23T14:34:55.748Z,100694.09
2022-09-23T14:38:11.159Z,100694.22
2022-09-23T14:41:25.694Z,100691.94
2022-09-23T14:44:34.716Z,100697.47
2022-09-23T14:47:54.720Z,100695.81
2022-09-23T14:51:06.706Z,100690.19
2022-09-23T14:54:35.377Z,100680.56
2022-09-23T14:57:45.701Z,100680.66
2022-09-23T15:00:58.369Z,100682.00
2022-09-23T15:04:19.775Z,100673.53
2022-09-23T15:07:28.569Z,100669.56
2022-09-23T15:10:46.728Z,100675.00
2022-09-23T15:14:14.042Z,100678.47
2022-09-23T15:17:34.563Z,100674.78
2022-09-23T15:20:56.791Z,100667.75
2022-09-23T15:23:58.734Z,100679.91
2022-09-23T15:27:33.780Z,100668.19
2022-09-23T15:30:36.860Z,100669.81
2022-09-23T15:33:53.717Z,100663.81
2022-09-23T15:37:11.562Z,100666.38
2022-09-23T15:40:31.781Z,100664.50
2022-09-23T15:43:41.100Z,100655.62
2022-09-23T15:46:57.691Z,100662.56
2022-09-23T15:50:05.723Z,100657.22
2022-09-23T15:53:17.355Z,100655.94
2022-09-23T15:56:25.741Z,100657.53
2022-09-23T15:59:40.739Z,100658.88
2022-09-23T16:02:56.881Z,100666.63
2022-09-23T16:06:01.325Z,100657.84
2022-09-23T16:09:15.739Z,100661.78
2022-09-23T16:12:23.747Z,100661.78
2022-09-23T16:15:33.054Z,100662.62
2022-09-23T16:18:41.825Z,100666.06
2022-09-23T16:21:56.752Z,100671.69
2022-09-23T16:25:12.778Z,100666.75
2022-09-23T16:28:20.898Z,100668.59
2022-09-23T16:31:35.849Z,100664.41
2022-09-23T16:34:57.791Z,100665.13
2022-09-23T16:38:12.731Z,100661.19
2022-09-23T16:41:21.781Z,100668.69
2022-09-23T16:44:36.831Z,100669.06
2022-09-23T16:47:43.159Z,100662.62
2022-09-23T16:50:57.845Z,100665.88
2022-09-23T16:54:06.768Z,100665.41
2022-09-23T16:57:21.890Z,100669.53
2022-09-23T17:00:30.604Z,100663.16
2022-09-23T17:03:38.849Z,100667.66
2022-09-23T17:06:56.869Z,100665.69
2022-09-23T17:10:04.829Z,100661.06
2022-09-23T17:13:13.371Z,100666.41
2022-09-23T17:16:33.888Z,100657.66
2022-09-23T17:19:44.768Z,100662.62
2022-09-23T17:22:59.824Z,100669.16
2022-09-23T17:26:15.009Z,100673.44
2022-09-23T17:29:16.905Z,100680.78
2022-09-23T17:32:33.797Z,100684.31
2022-09-23T17:35:55.784Z,100672.50
2022-09-23T17:39:10.836Z,100680.22
2022-09-23T17:42:19.437Z,100674.84
2022-09-23T17:45:27.865Z,100682.38
2022-09-23T17:48:46.040Z,100680.38
2022-09-23T17:52:00.812Z,100680.13
2022-09-23T17:55:02.757Z,100677.41
2022-09-23T17:58:17.829Z,100688.06
2022-09-23T18:01:32.891Z,100692.44
2022-09-23T18:04:40.851Z,100692.34
2022-09-23T18:08:05.357Z,100683.88
2022-09-23T18:11:21.126Z,100681.41
2022-09-23T18:14:29.815Z,100686.00
2022-09-23T18:17:44.784Z,100688.91
2022-09-23T18:20:46.692Z,100698.59
2022-09-23T18:27:40.890Z,100695.38
2022-09-23T18:30:53.308Z,100691.88
2022-09-23T18:34:10.920Z,100693.38
2022-09-23T18:37:33.073Z,100688.50
2022-09-23T18:40:41.952Z,100686.47
2022-09-23T18:43:50.596Z,100698.50
2022-09-23T18:47:04.886Z,100699.16
2022-09-23T18:50:13.832Z,100700.00
2022-09-23T18:53:28.888Z,100704.09
2022-09-23T18:56:33.557Z,100707.09
2022-09-23T18:59:48.841Z,100701.72
2022-09-23T19:03:03.843Z,100693.94
2022-09-23T19:06:21.068Z,100698.88
2022-09-23T19:09:29.914Z,100704.63
2022-09-23T19:12:44.875Z,100703.09
2022-09-23T19:15:46.739Z,100695.31
2022-09-23T19:19:01.847Z,100695.97
2022-09-23T19:22:09.816Z,100699.19
2022-09-23T19:25:18.448Z,100707.75
2022-09-23T19:28:32.912Z,100699.16
2022-09-23T19:31:37.780Z,100707.19
2022-09-23T19:34:52.852Z,100702.47
2022-09-23T19:38:14.883Z,100702.31
2022-09-23T19:41:16.728Z,100698.56
2022-09-23T19:44:33.868Z,100701.25
2022-09-23T19:47:42.474Z,100700.06
2022-09-23T19:50:53.894Z,100694.66
2022-09-23T19:54:10.969Z,100700.03
2022-09-23T19:57:19.922Z,100706.69
2022-09-23T20:00:34.929Z,100703.16
2022-09-23T20:03:44.452Z,100703.31
2022-09-23T20:06:52.871Z,100710.22
2022-09-23T20:10:01.413Z,100697.53
2022-09-23T20:13:15.868Z,100697.03
2022-09-23T20:16:19.603Z,100700.06
2022-09-23T20:19:33.913Z,100698.03
2022-09-23T20:22:36.200Z,100702.09
2022-09-23T20:25:50.940Z,100702.09
2022-09-23T20:28:59.388Z,100699.06
2022-09-23T20:32:08.008Z,100699.19
2022-09-23T20:35:29.899Z,100696.31
2022-09-23T20:38:45.932Z,100693.94
2022-09-23T20:41:53.915Z,100702.00
2022-09-23T20:45:08.901Z,100712.09
2022-09-23T20:48:16.891Z,100704.00
2022-09-23T20:51:25.664Z,100698.22
2022-09-23T20:54:39.883Z,100697.50
2022-09-23T20:57:41.681Z,100695.47
2022-09-23T21:00:55.924Z,100699.69
2022-09-23T21:04:11.915Z,100693.44
2022-09-23T21:07:19.903Z,100696.94
2022-09-23T21:10:28.476Z,100696.06
2022-09-23T21:13:37.921Z,100697.75
2022-09-23T21:16:52.924Z,100699.78
2022-09-23T21:20:07.928Z,100691.28
2022-09-23T21:23:15.946Z,100700.66
2022-09-23T21:26:25.760Z,100703.41
2022-09-23T21:29:40.908Z,100706.28
2022-09-23T21:32:42.692Z,100700.88
2022-09-23T21:36:06.940Z,100702.91
2022-09-23T21:39:21.916Z,100679.00
2022-09-23T21:42:23.786Z,100700.28
2022-09-23T21:45:38.884Z,100713.75
2022-09-23T21:48:48.918Z,100713.75
2022-09-23T21:52:03.936Z,100711.53
2022-09-23T21:55:19.954Z,100712.53
2022-09-23T21:58:21.921Z,100712.06
2022-09-23T22:01:38.949Z,100714.22
2022-09-23T22:04:54.921Z,100716.09
2022-09-23T22:08:02.977Z,100717.38
2022-09-23T22:11:13.928Z,100721.13
2022-09-23T22:14:23.963Z,100716.59
2022-09-23T22:17:38.916Z,100717.28
2022-09-23T22:20:47.591Z,100710.22
2022-09-23T22:23:58.920Z,100711.44
2022-09-23T22:27:16.040Z,100708.91
2022-09-23T22:30:23.949Z,100713.31
2022-09-23T22:33:38.944Z,100709.94
2022-09-23T22:37:03.939Z,100717.44
2022-09-23T22:40:21.052Z,100709.16
2022-09-23T22:43:35.947Z,100707.59
2022-09-23T22:46:52.039Z,100711.84
2022-09-23T22:49:54.224Z,100707.91
2022-09-23T22:53:08.962Z,100712.13
2022-09-23T22:56:18.008Z,100712.13
2022-09-23T22:59:25.945Z,100709.16
2022-09-23T23:02:40.947Z,100713.81
2022-09-23T23:05:48.961Z,100719.50
2022-09-23T23:08:57.507Z,100703.97
2022-09-23T23:12:12.035Z,100708.81
2022-09-23T23:15:13.768Z,100707.59
2022-09-23T23:18:28.953Z,100709.13
2022-09-23T23:21:37.978Z,100708.88
2022-09-23T23:24:52.975Z,100708.63
2022-09-23T23:28:07.962Z,100719.44
2022-09-23T23:31:11.932Z,100705.19
2022-09-23T23:34:28.013Z,100709.03
2022-09-23T23:37:43.305Z,100701.41
2022-09-23T23:40:52.011Z,100695.09
2022-09-23T23:44:08.028Z,100696.78
2022-09-23T23:47:23.054Z,100704.16
2022-09-23T23:50:31.046Z,100707.84
2022-09-23T23:53:41.262Z,100708.06
2022-09-23T23:56:49.945Z,100703.53
2022-09-23T23:59:58.594Z,100697.47
